Sari, Iran
Current Conditions -  °F | °C
As of 3:00 AM on Monday 24 Nov 2014 (Local Time) from OINZ Reporting Station
Broken Clouds Broken Clouds  
Wind Chill: 52°   Ceiling: 8000
Heat Index: 52°   Visibility: 6mi
Dew Point: 50°   Wind: 14mph
Humidity: 94%   Direction: 60°ENE
Pressure: 30.09"   Gusts: NA
Location:  36.57°N, 53.06°E
Report Text: OINZ 240000Z 06012KT 9999 SCT030 BKN080 11/10 Q1019
Loading
Personal Weather Stations






























Interactive Weather Map New forecast layout! Learn more

10-Day Weather Forecast

Advertisements
Track Severe Weather on mobile